Time;durP1;ratioP1;P1;durP2;ratioP2;P2;SDS_P1;SDS_P2;PMS_P1;PMS_P2;Temp;Humidity;BMP_temperature;BMP_pressure;BME280_temperature;BME280_humidity;BME280_pressure;Samples;Min_cycle;Max_cycle;Signal;HPM_P1;HPM_P2
2023/01/17 00:01:49;;;;;;;0.90;0.30;;;4.40;99.90;;;;;;5010064;28;20424;-92
2023/01/17 00:09:52;;;;;;;0.67;0.27;;;4.40;99.90;;;;;;4997975;28;20474;-88
2023/01/17 00:12:20;;;;;;;0.70;0.30;;;4.50;99.90;;;;;;4997043;28;20432;-82
2023/01/17 00:14:47;;;;;;;0.40;0.20;;;4.40;99.90;;;;;;4996655;28;20431;-92
2023/01/17 00:17:12;;;;;;;0.87;0.40;;;4.50;99.90;;;;;;4999721;28;20827;-85
2023/01/17 01:34:22;;;;;;;0.90;0.20;;;4.00;99.90;;;;;;5022260;28;20516;-92
2023/01/17 01:36:48;;;;;;;2.97;0.30;;;4.10;99.90;;;;;;5004667;28;20433;-94
2023/01/17 01:39:13;;;;;;;1.30;0.57;;;4.00;99.90;;;;;;5008493;28;20188;-88
2023/01/17 01:41:39;;;;;;;0.77;0.43;;;4.00;99.90;;;;;;5015737;28;20191;-84
2023/01/17 01:44:24;;;;;;;1.33;0.50;;;4.00;99.90;;;;;;5034244;28;20267;-88
2023/01/17 01:46:50;;;;;;;0.87;0.40;;;4.00;99.90;;;;;;5012790;28;20175;-91
2023/01/17 01:49:23;;;;;;;1.03;0.37;;;4.00;99.90;;;;;;5019381;28;20435;-92
2023/01/17 01:51:55;;;;;;;1.47;0.40;;;4.00;99.90;;;;;;5002078;28;20236;-90
2023/01/17 01:54:30;;;;;;;2.40;0.80;;;4.00;99.90;;;;;;5018197;28;20430;-94
2023/01/17 01:56:59;;;;;;;0.60;0.30;;;4.00;99.90;;;;;;5000524;28;20482;-94
2023/01/17 01:59:25;;;;;;;1.43;0.60;;;4.10;99.90;;;;;;4999532;28;20430;-89
2023/01/17 02:01:54;;;;;;;0.77;0.33;;;4.10;99.90;;;;;;4999370;28;20426;-89
2023/01/17 02:04:21;;;;;;;2.80;1.13;;;4.10;99.90;;;;;;4998740;28;20255;-94
2023/01/17 02:06:51;;;;;;;2.10;0.43;;;4.10;99.90;;;;;;5016835;28;20421;-94
2023/01/17 02:09:17;;;;;;;1.93;1.33;;;4.10;99.90;;;;;;5004448;28;20410;-94
2023/01/17 02:11:44;;;;;;;1.17;1.00;;;4.00;99.90;;;;;;5005859;28;20434;-87
2023/01/17 02:14:20;;;;;;;1.17;0.40;;;4.00;99.90;;;;;;5007875;28;20437;-95
2023/01/17 02:17:11;;;;;;;2.20;0.50;;;4.10;99.90;;;;;;5007146;28;20508;-90
2023/01/17 02:20:24;;;;;;;1.70;1.50;;;4.00;99.90;;;;;;5007036;28;20403;-95
2023/01/17 02:23:08;;;;;;;0.73;0.27;;;4.00;99.90;;;;;;4971393;28;20417;-85
2023/01/17 02:26:10;;;;;;;2.30;0.73;;;4.00;99.90;;;;;;5002408;28;20439;-90
2023/01/17 02:28:44;;;;;;;1.60;0.83;;;4.00;99.90;;;;;;5019723;28;20426;-90
2023/01/17 02:31:16;;;;;;;2.30;0.63;;;4.00;99.90;;;;;;5023145;28;20477;-90
2023/01/17 02:34:19;;;;;;;1.60;1.03;;;4.00;99.90;;;;;;5004490;28;20433;-86
2023/01/17 02:37:03;;;;;;;0.97;0.30;;;4.10;99.90;;;;;;5006256;28;20512;-87
2023/01/17 02:39:45;;;;;;;1.23;0.63;;;4.10;99.90;;;;;;5004980;28;20451;-96
2023/01/17 02:42:16;;;;;;;4.23;1.87;;;4.00;99.90;;;;;;5006387;28;20416;-92
2023/01/17 02:44:43;;;;;;;2.07;1.30;;;4.00;99.90;;;;;;5024617;28;20470;-92
2023/01/17 02:47:25;;;;;;;1.87;1.47;;;4.00;99.90;;;;;;5008515;28;20408;-93
2023/01/17 02:49:55;;;;;;;5.07;1.23;;;4.00;99.90;;;;;;5027784;28;20427;-84
2023/01/17 02:52:48;;;;;;;1.90;1.00;;;4.00;99.90;;;;;;5023884;28;20420;-91
2023/01/17 02:55:30;;;;;;;1.97;0.93;;;4.00;99.90;;;;;;5035052;28;20475;-84
2023/01/17 02:58:12;;;;;;;3.23;2.20;;;4.00;99.90;;;;;;5030675;23;20986;-83
2023/01/17 03:01:02;;;;;;;2.70;1.30;;;4.00;99.90;;;;;;5033416;23;20565;-83
2023/01/17 03:03:58;;;;;;;1.73;1.07;;;4.00;99.90;;;;;;5006650;23;20515;-95
2023/01/17 03:06:37;;;;;;;3.83;1.50;;;4.00;99.90;;;;;;4995179;28;20411;-85
2023/01/17 03:09:03;;;;;;;2.60;1.43;;;4.10;99.90;;;;;;4996849;28;20466;-83
2023/01/17 03:11:29;;;;;;;5.23;2.50;;;4.10;99.90;;;;;;4991834;28;20431;-88
2023/01/17 03:16:22;;;;;;;2.80;2.30;;;4.10;99.90;;;;;;4999344;23;20236;-84
2023/01/17 03:18:48;;;;;;;3.20;2.17;;;4.10;99.90;;;;;;4998107;23;20237;-83
2023/01/17 03:21:13;;;;;;;4.30;2.27;;;4.10;99.90;;;;;;4967208;23;20414;-83
2023/01/17 03:23:39;;;;;;;4.50;2.53;;;4.10;99.90;;;;;;4992091;28;20488;-83
2023/01/17 03:26:05;;;;;;;4.47;2.87;;;4.10;99.90;;;;;;4999265;23;20248;-83
2023/01/17 03:28:30;;;;;;;4.13;2.30;;;4.10;99.90;;;;;;4980697;28;20193;-83
2023/01/17 03:30:56;;;;;;;5.60;3.83;;;4.20;99.90;;;;;;4995033;28;20235;-87
2023/01/17 03:33:22;;;;;;;6.87;3.20;;;4.20;99.90;;;;;;4995566;28;20185;-86
2023/01/17 03:35:51;;;;;;;3.90;2.63;;;4.20;99.90;;;;;;4992557;23;20209;-88
2023/01/17 03:38:17;;;;;;;3.70;2.80;;;4.20;99.90;;;;;;5016800;28;20428;-84
2023/01/17 03:40:42;;;;;;;3.23;2.73;;;4.20;99.90;;;;;;5170579;23;20494;-84
2023/01/17 03:43:08;;;;;;;4.50;2.90;;;4.20;99.90;;;;;;5024151;28;20222;-84
2023/01/17 03:45:33;;;;;;;3.80;2.40;;;4.20;99.90;;;;;;5022392;28;20206;-84
2023/01/17 03:47:59;;;;;;;5.20;3.30;;;4.20;99.90;;;;;;5024083;28;20185;-84
2023/01/17 03:50:25;;;;;;;4.47;1.97;;;4.20;99.90;;;;;;5038506;28;20175;-84
2023/01/17 03:52:50;;;;;;;3.57;2.70;;;4.20;99.90;;;;;;5024335;28;20171;-84
2023/01/17 03:55:16;;;;;;;4.77;2.63;;;4.20;99.90;;;;;;5024965;28;20425;-84
2023/01/17 03:57:41;;;;;;;4.37;3.47;;;4.20;99.90;;;;;;5022932;28;20176;-85
2023/01/17 04:00:08;;;;;;;5.30;2.83;;;4.20;99.90;;;;;;5025537;28;20175;-84
2023/01/17 04:02:33;;;;;;;3.50;2.47;;;4.20;99.90;;;;;;5025679;28;20182;-85
2023/01/17 04:04:59;;;;;;;5.10;2.20;;;4.20;99.90;;;;;;5024656;28;20453;-85
2023/01/17 04:07:24;;;;;;;3.87;2.67;;;4.20;99.90;;;;;;5041720;28;20168;-86
2023/01/17 04:09:50;;;;;;;4.47;3.00;;;4.20;99.90;;;;;;5027214;28;20388;-84
2023/01/17 04:12:15;;;;;;;5.50;3.33;;;4.20;99.90;;;;;;5028471;28;20178;-85
2023/01/17 04:14:41;;;;;;;6.07;3.60;;;4.20;99.90;;;;;;5027724;28;20187;-84
2023/01/17 04:17:11;;;;;;;4.87;3.90;;;4.20;99.90;;;;;;5030534;28;20172;-84
2023/01/17 04:19:39;;;;;;;4.90;3.63;;;4.10;99.90;;;;;;5048023;28;20184;-85
2023/01/17 04:22:27;;;;;;;5.40;4.17;;;4.10;99.90;;;;;;5030161;28;20418;-85
2023/01/17 04:25:24;;;;;;;1.60;1.23;;;4.10;99.90;;;;;;5021862;28;20467;-84
2023/01/17 04:27:50;;;;;;;1.63;1.03;;;3.90;99.90;;;;;;5017408;28;20754;-85
2023/01/17 04:30:16;;;;;;;3.27;1.10;;;3.80;99.90;;;;;;5017211;28;20433;-83
2023/01/17 04:32:41;;;;;;;2.00;1.07;;;3.80;99.90;;;;;;5021486;28;20422;-86
2023/01/17 04:35:08;;;;;;;2.20;1.50;;;3.80;99.90;;;;;;5023600;28;20169;-84
2023/01/17 04:37:39;;;;;;;2.43;1.20;;;3.80;99.90;;;;;;5016720;28;20163;-86
2023/01/17 04:40:05;;;;;;;5.07;2.40;;;3.80;99.90;;;;;;5025676;23;20494;-87
2023/01/17 04:42:31;;;;;;;5.33;2.73;;;3.80;99.90;;;;;;5001728;23;20500;-88
2023/01/17 04:47:22;;;;;;;4.33;2.80;;;3.70;99.90;;;;;;4982753;23;20251;-84
2023/01/17 04:49:47;;;;;;;3.40;2.00;;;3.80;99.90;;;;;;5069513;23;20201;-84
2023/01/17 04:52:13;;;;;;;5.37;3.20;;;3.80;99.90;;;;;;4997829;28;20311;-84
2023/01/17 04:54:48;;;;;;;4.10;2.47;;;3.80;99.90;;;;;;5019952;23;20244;-88
2023/01/17 04:59:44;;;;;;;5.23;3.43;;;3.80;99.90;;;;;;5016407;28;20506;-86
2023/01/17 05:02:10;;;;;;;2.50;1.43;;;3.80;99.90;;;;;;5003066;28;20434;-86
2023/01/17 05:04:38;;;;;;;6.57;2.23;;;3.80;99.90;;;;;;5003558;28;20529;-86
2023/01/17 05:12:11;;;;;;;6.10;3.10;;;3.80;99.90;;;;;;5096036;23;20478;-85
2023/01/17 05:14:36;;;;;;;4.70;3.07;;;3.80;99.90;;;;;;4958509;29;20454;-84
2023/01/17 05:17:02;;;;;;;5.57;2.90;;;3.80;99.90;;;;;;4966629;29;20177;-90
2023/01/17 05:19:27;;;;;;;3.03;2.10;;;3.80;99.90;;;;;;4939288;29;20188;-96
2023/01/17 05:21:53;;;;;;;5.23;3.30;;;3.80;99.90;;;;;;4955775;29;20173;-92
2023/01/17 05:24:19;;;;;;;6.60;3.67;;;3.80;99.90;;;;;;4954258;29;20249;-96
2023/01/17 05:26:53;;;;;;;6.70;3.10;;;3.80;99.90;;;;;;4955172;29;20260;-94
2023/01/17 05:29:19;;;;;;;6.57;3.03;;;3.90;99.90;;;;;;4954095;29;20204;-94
2023/01/17 05:31:45;;;;;;;5.43;3.30;;;3.90;99.90;;;;;;4941778;29;20413;-90
2023/01/17 05:34:10;;;;;;;4.43;2.43;;;3.90;99.90;;;;;;4954804;29;21006;-94
2023/01/17 05:36:36;;;;;;;7.30;3.30;;;3.90;99.90;;;;;;4947984;29;20181;-84
2023/01/17 05:39:01;;;;;;;4.60;2.70;;;3.90;99.90;;;;;;4975305;28;20189;-87
2023/01/17 05:41:29;;;;;;;4.07;2.03;;;3.90;99.90;;;;;;5022197;23;20227;-87
2023/01/17 05:43:55;;;;;;;4.50;2.93;;;4.00;99.90;;;;;;4980471;28;20196;-93
2023/01/17 05:46:20;;;;;;;3.40;2.10;;;3.90;99.90;;;;;;4979316;28;20421;-92
2023/01/17 05:48:49;;;;;;;4.13;2.73;;;4.00;99.90;;;;;;4978357;28;20269;-93
2023/01/17 05:51:14;;;;;;;3.13;1.90;;;4.00;99.90;;;;;;4979037;28;20183;-93
2023/01/17 05:53:40;;;;;;;2.53;1.43;;;3.90;99.90;;;;;;4971766;28;20425;-86
2023/01/17 05:56:05;;;;;;;2.63;1.53;;;3.90;99.90;;;;;;4985762;28;20782;-93
2023/01/17 05:58:33;;;;;;;3.40;1.17;;;3.90;99.90;;;;;;4976891;28;20177;-94
2023/01/17 06:01:00;;;;;;;2.20;1.37;;;4.00;99.90;;;;;;4977119;28;20425;-93
2023/01/17 06:03:25;;;;;;;1.70;0.87;;;3.90;99.90;;;;;;4977725;28;20465;-88
2023/01/17 06:05:56;;;;;;;1.90;0.60;;;3.90;99.90;;;;;;4993129;28;20446;-85
2023/01/17 06:10:50;;;;;;;1.03;0.47;;;3.90;99.90;;;;;;5028440;28;20466;-84
2023/01/17 06:13:19;;;;;;;0.90;0.43;;;3.90;99.90;;;;;;5026993;28;20429;-89
2023/01/17 06:15:45;;;;;;;0.40;0.20;;;3.90;99.90;;;;;;5014827;28;20189;-88
2023/01/17 06:18:13;;;;;;;1.00;0.50;;;3.80;99.90;;;;;;5017282;28;20454;-83
2023/01/17 06:20:39;;;;;;;0.40;0.20;;;3.90;99.90;;;;;;5018594;28;20417;-88
2023/01/17 06:23:07;;;;;;;0.63;0.20;;;3.80;99.90;;;;;;4983069;23;20503;-84
2023/01/17 06:25:42;;;;;;;0.50;0.20;;;3.70;99.90;;;;;;4975533;28;20416;-83
2023/01/17 06:28:08;;;;;;;0.60;0.20;;;3.70;99.90;;;;;;4991466;28;20428;-83
2023/01/17 06:30:49;;;;;;;0.90;0.30;;;3.60;99.90;;;;;;4977406;28;20806;-83
2023/01/17 06:33:21;;;;;;;0.40;0.30;;;3.60;99.90;;;;;;4978246;28;20456;-86
2023/01/17 06:35:51;;;;;;;0.93;0.30;;;3.60;99.90;;;;;;4994864;28;20420;-85
2023/01/17 06:38:17;;;;;;;0.60;0.20;;;3.50;99.90;;;;;;4978484;28;20417;-82
2023/01/17 06:40:46;;;;;;;1.53;0.30;;;3.50;99.90;;;;;;4978750;28;20413;-82
2023/01/17 06:43:11;;;;;;;2.53;0.30;;;3.50;99.90;;;;;;4978084;28;20275;-83
2023/01/17 06:45:37;;;;;;;0.30;0.20;;;3.50;99.90;;;;;;4990507;28;20453;-88
2023/01/17 06:48:04;;;;;;;1.67;0.20;;;3.50;99.90;;;;;;4976788;28;20164;-83
2023/01/17 06:50:31;;;;;;;0.97;0.20;;;3.40;99.90;;;;;;4974869;29;20433;-83
2023/01/17 06:53:01;;;;;;;3.30;0.30;;;3.40;99.90;;;;;;4992802;28;20439;-88
2023/01/17 06:55:28;;;;;;;2.63;0.40;;;3.30;99.90;;;;;;4976811;29;20405;-83
2023/01/17 06:57:55;;;;;;;1.63;0.30;;;3.30;99.90;;;;;;4985402;28;20435;-90
2023/01/17 07:00:21;;;;;;;0.50;0.27;;;3.30;99.90;;;;;;4985002;28;20921;-90
2023/01/17 07:02:51;;;;;;;2.23;0.40;;;3.20;99.90;;;;;;4986787;28;20435;-85
2023/01/17 07:05:18;;;;;;;0.30;0.20;;;3.30;99.90;;;;;;4961727;29;20193;-93
2023/01/17 07:07:44;;;;;;;0.30;0.20;;;3.30;99.90;;;;;;4979258;28;20905;-93
2023/01/17 07:10:11;;;;;;;2.67;0.30;;;3.40;99.90;;;;;;4977040;28;20508;-93
2023/01/17 07:12:38;;;;;;;1.33;0.37;;;3.40;99.90;;;;;;4959115;29;20523;-96
2023/01/17 07:15:06;;;;;;;1.20;0.20;;;3.40;99.90;;;;;;4957441;28;20468;-82
2023/01/17 07:17:33;;;;;;;4.83;0.20;;;3.40;99.90;;;;;;4972789;23;20709;-87
2023/01/17 07:20:01;;;;;;;0.90;0.20;;;3.30;99.90;;;;;;5000818;28;20438;-92
2023/01/17 07:22:28;;;;;;;1.00;0.50;;;3.30;99.90;;;;;;5006247;28;20420;-82
2023/01/17 07:24:57;;;;;;;2.10;0.20;;;3.30;99.90;;;;;;5002087;28;20561;-92
2023/01/17 07:27:24;;;;;;;1.50;0.73;;;3.30;99.90;;;;;;4980347;28;20427;-92
2023/01/17 07:29:50;;;;;;;0.90;0.20;;;3.30;99.90;;;;;;4981781;28;20427;-91
2023/01/17 07:32:16;;;;;;;1.13;0.30;;;3.30;99.90;;;;;;4990940;28;20445;-90
2023/01/17 07:34:41;;;;;;;2.07;0.30;;;3.30;99.90;;;;;;4988217;28;20422;-95
2023/01/17 07:37:10;;;;;;;3.83;0.43;;;3.30;99.90;;;;;;5003130;28;20192;-89
2023/01/17 07:39:39;;;;;;;1.50;1.33;;;3.30;99.90;;;;;;4988361;28;20437;-91
2023/01/17 07:42:22;;;;;;;3.57;0.87;;;3.30;99.90;;;;;;5004668;28;20427;-92
2023/01/17 07:44:51;;;;;;;2.77;0.53;;;3.30;99.90;;;;;;4999162;28;20886;-87
2023/01/17 07:47:16;;;;;;;11.73;1.27;;;3.30;99.90;;;;;;4981843;28;20434;-94
2023/01/17 07:49:42;;;;;;;0.80;0.30;;;3.30;99.90;;;;;;5007475;28;20183;-88
2023/01/17 07:52:08;;;;;;;4.13;0.70;;;3.30;99.90;;;;;;4994365;28;20248;-89
2023/01/17 07:54:34;;;;;;;1.83;0.60;;;3.30;99.90;;;;;;5009162;28;20176;-86
2023/01/17 07:57:00;;;;;;;2.20;0.43;;;3.30;99.90;;;;;;5002321;28;20429;-92
2023/01/17 07:59:25;;;;;;;0.93;0.20;;;3.40;99.90;;;;;;4999869;28;20187;-93
2023/01/17 08:01:51;;;;;;;0.47;0.30;;;3.40;99.90;;;;;;5001086;28;20411;-88
2023/01/17 08:04:16;;;;;;;0.90;0.23;;;3.40;99.90;;;;;;5000182;28;20207;-86
2023/01/17 08:06:46;;;;;;;1.90;0.83;;;3.30;99.90;;;;;;4992457;28;20310;-89
2023/01/17 08:09:12;;;;;;;2.00;0.50;;;3.30;99.90;;;;;;5005991;28;20273;-88
2023/01/17 08:11:37;;;;;;;1.90;0.30;;;3.30;99.90;;;;;;4989039;28;20470;-87
2023/01/17 08:14:03;;;;;;;5.33;0.77;;;3.30;99.90;;;;;;4990791;28;20427;-91
2023/01/17 08:16:28;;;;;;;4.87;0.50;;;3.30;99.90;;;;;;5001523;28;20169;-84
2023/01/17 08:18:55;;;;;;;1.13;0.50;;;3.40;99.90;;;;;;5006167;28;20250;-84
2023/01/17 08:21:23;;;;;;;1.33;0.60;;;3.40;99.90;;;;;;5012450;28;20168;-95
2023/01/17 08:23:50;;;;;;;0.50;0.30;;;3.50;99.90;;;;;;5012496;28;20446;-89
2023/01/17 08:26:21;;;;;;;3.00;0.40;;;3.40;99.90;;;;;;5011540;28;20526;-83
2023/01/17 08:28:48;;;;;;;5.17;0.43;;;3.40;99.90;;;;;;5023813;23;20497;-83
2023/01/17 08:31:16;;;;;;;1.60;0.40;;;3.30;99.90;;;;;;5029644;28;20428;-84
2023/01/17 08:33:41;;;;;;;1.53;0.83;;;3.10;99.90;;;;;;5011990;28;20444;-85
2023/01/17 08:36:07;;;;;;;0.37;0.23;;;3.00;99.90;;;;;;5033263;28;20496;-93
2023/01/17 08:38:33;;;;;;;2.37;0.70;;;3.00;99.90;;;;;;5036429;28;20200;-93
2023/01/17 08:41:01;;;;;;;0.80;0.20;;;3.00;99.90;;;;;;5030712;28;20187;-92
2023/01/17 08:43:27;;;;;;;2.30;1.10;;;3.10;99.90;;;;;;5007737;28;20738;-95
2023/01/17 08:45:54;;;;;;;2.40;0.30;;;3.00;99.90;;;;;;5017351;28;20460;-93
2023/01/17 08:48:21;;;;;;;2.00;0.20;;;3.00;99.90;;;;;;5000687;28;20186;-89
2023/01/17 08:50:46;;;;;;;1.60;0.30;;;2.90;99.90;;;;;;4992425;28;20437;-83
2023/01/17 08:53:13;;;;;;;2.93;0.43;;;2.90;99.90;;;;;;4995478;28;20864;-85
2023/01/17 08:55:39;;;;;;;1.80;0.20;;;2.90;99.90;;;;;;5003122;28;20182;-83
2023/01/17 08:58:05;;;;;;;2.13;0.80;;;3.00;99.90;;;;;;5003719;28;20421;-83
2023/01/17 09:00:31;;;;;;;3.07;0.63;;;3.10;99.90;;;;;;5023277;28;20410;-88
2023/01/17 09:02:57;;;;;;;2.93;0.73;;;3.10;99.90;;;;;;5005641;28;20437;-89
2023/01/17 09:05:22;;;;;;;2.00;0.23;;;3.20;99.90;;;;;;5010973;28;20181;-92
2023/01/17 09:07:48;;;;;;;0.70;0.20;;;3.40;99.90;;;;;;5010184;28;20184;-93
2023/01/17 09:10:13;;;;;;;0.90;0.40;;;3.60;99.90;;;;;;5007271;28;20175;-93
2023/01/17 09:12:39;;;;;;;3.63;0.83;;;3.80;99.90;;;;;;5002534;28;20628;-93
2023/01/17 09:15:05;;;;;;;3.70;0.77;;;4.20;99.90;;;;;;5016049;28;20700;-89
2023/01/17 09:17:30;;;;;;;1.90;0.37;;;4.80;99.90;;;;;;5014827;28;20187;-87
2023/01/17 09:19:58;;;;;;;1.83;0.40;;;4.90;99.90;;;;;;4997795;28;20889;-88
2023/01/17 09:22:24;;;;;;;7.00;1.63;;;4.90;99.90;;;;;;4997920;28;20707;-89
2023/01/17 09:24:50;;;;;;;2.30;0.47;;;4.80;99.90;;;;;;5015721;28;20467;-88
2023/01/17 09:27:15;;;;;;;0.57;0.20;;;4.50;99.90;;;;;;5015783;28;20416;-89
2023/01/17 09:29:41;;;;;;;2.70;0.33;;;5.40;99.90;;;;;;4997769;28;20597;-86
2023/01/17 09:32:06;;;;;;;1.60;0.30;;;6.20;1.00;;;;;;5015487;28;20168;-90
2023/01/17 09:34:31;;;;;;;1.03;0.20;;;7.30;99.90;;;;;;4997466;28;20174;-83
2023/01/17 09:36:57;;;;;;;4.77;0.30;;;7.20;99.90;;;;;;4997832;28;20178;-83
2023/01/17 09:39:23;;;;;;;2.73;0.60;;;8.20;99.90;;;;;;4997677;28;20179;-84
2023/01/17 09:42:03;;;;;;;2.50;0.20;;;7.00;99.90;;;;;;4997730;28;20177;-90
2023/01/17 09:44:45;;;;;;;2.93;0.30;;;6.00;1.00;;;;;;4997472;28;20206;-85
2023/01/17 09:47:19;;;;;;;0.47;0.20;;;5.30;35.00;;;;;;5014049;28;20418;-89
2023/01/17 09:49:46;;;;;;;2.00;0.40;;;4.90;99.90;;;;;;4997949;28;20460;-89
2023/01/17 09:52:16;;;;;;;1.63;0.30;;;4.80;99.90;;;;;;4998113;28;20429;-91
2023/01/17 09:54:44;;;;;;;2.60;0.30;;;4.50;99.90;;;;;;5015201;28;20414;-90
2023/01/17 09:57:50;;;;;;;0.80;0.27;;;4.50;99.90;;;;;;4997854;28;20452;-89
2023/01/17 10:00:39;;;;;;;1.00;0.40;;;4.50;99.90;;;;;;4995651;28;20426;-90
2023/01/17 10:03:31;;;;;;;1.90;0.30;;;4.60;99.90;;;;;;4981955;28;20415;-81
2023/01/17 10:06:16;;;;;;;0.93;0.30;;;4.50;99.90;;;;;;4997829;28;20434;-92
2023/01/17 10:08:45;;;;;;;1.60;0.50;;;4.30;99.90;;;;;;4996915;28;20457;-90
2023/01/17 10:12:04;;;;;;;1.00;0.20;;;4.30;99.90;;;;;;4998493;28;20775;-89
2023/01/17 10:15:02;;;;;;;1.07;0.50;;;4.40;99.90;;;;;;4957750;28;20420;-91
2023/01/17 10:17:49;;;;;;;1.80;0.30;;;4.90;99.80;;;;;;5003968;28;20446;-91
2023/01/17 10:20:39;;;;;;;4.23;1.13;;;5.00;1.00;;;;;;5018409;28;20422;-88
2023/01/17 10:23:43;;;;;;;1.63;0.40;;;5.60;1.00;;;;;;5015056;28;20409;-83
2023/01/17 10:26:21;;;;;;;3.47;0.63;;;6.70;1.00;;;;;;4958419;28;20420;-89
2023/01/17 10:28:53;;;;;;;3.67;0.60;;;6.30;99.90;;;;;;4972536;28;20665;-90
2023/01/17 10:31:23;;;;;;;5.00;0.30;;;6.70;1.00;;;;;;4997666;28;20443;-90
2023/01/17 10:33:52;;;;;;;2.83;0.20;;;6.70;99.90;;;;;;4997604;28;20449;-90
2023/01/17 10:36:26;;;;;;;0.30;0.20;;;6.70;99.90;;;;;;4997351;28;20473;-87
2023/01/17 10:38:56;;;;;;;5.70;0.30;;;6.80;1.00;;;;;;5018182;28;20448;-87
2023/01/17 10:41:26;;;;;;;3.07;0.20;;;6.30;99.90;;;;;;5020993;28;20419;-90
2023/01/17 10:44:08;;;;;;;2.47;1.40;;;7.30;1.00;;;;;;5014410;28;20493;-92
2023/01/17 10:46:41;;;;;;;3.13;0.30;;;7.20;99.90;;;;;;5016115;28;20747;-90
2023/01/17 10:49:35;;;;;;;1.13;0.30;;;8.00;99.90;;;;;;4997714;28;20418;-91
2023/01/17 10:52:27;;;;;;;2.63;0.37;;;8.50;1.00;;;;;;5013286;28;20826;-91
2023/01/17 10:55:09;;;;;;;1.30;0.27;;;8.10;1.00;;;;;;5014913;28;20407;-89
2023/01/17 10:57:41;;;;;;;1.83;0.20;;;8.40;1.00;;;;;;5015034;28;20416;-91
2023/01/17 11:00:23;;;;;;;2.13;0.30;;;8.60;99.90;;;;;;5014911;28;20453;-92
2023/01/17 11:02:50;;;;;;;1.47;0.63;;;7.80;1.00;;;;;;5014903;28;20425;-88
2023/01/17 11:05:34;;;;;;;2.60;0.30;;;8.00;1.00;;;;;;4996771;28;20558;-88
2023/01/17 11:08:09;;;;;;;0.60;0.20;;;7.90;1.00;;;;;;5014033;28;20421;-89
2023/01/17 11:10:40;;;;;;;0.90;0.33;;;7.90;1.00;;;;;;4996931;28;20515;-88
2023/01/17 11:13:33;;;;;;;5.03;0.90;;;8.80;99.90;;;;;;5014233;28;20816;-87
2023/01/17 11:16:02;;;;;;;0.97;0.20;;;8.80;99.90;;;;;;5015165;28;20417;-85
2023/01/17 11:18:31;;;;;;;2.87;0.40;;;9.10;99.90;;;;;;4997430;28;20433;-87
2023/01/17 11:21:20;;;;;;;1.57;0.20;;;9.60;99.90;;;;;;4997457;28;20798;-93
2023/01/17 11:23:53;;;;;;;3.73;0.20;;;9.60;99.90;;;;;;5014970;28;20476;-90
2023/01/17 11:26:31;;;;;;;0.60;0.20;;;10.20;99.90;;;;;;4997252;28;20425;-90
2023/01/17 11:29:28;;;;;;;8.97;0.50;;;11.00;99.90;;;;;;4997043;28;21015;-83
2023/01/17 11:31:57;;;;;;;1.80;0.57;;;10.30;99.90;;;;;;4997624;28;20502;-91
2023/01/17 11:34:30;;;;;;;0.90;0.20;;;9.80;99.90;;;;;;4996854;28;20410;-92
2023/01/17 11:37:25;;;;;;;2.50;0.27;;;8.00;99.90;;;;;;5012593;28;20517;-84
2023/01/17 11:39:50;;;;;;;4.17;0.50;;;7.80;99.90;;;;;;5013219;28;20566;-93
2023/01/17 11:42:37;;;;;;;1.00;0.20;;;9.10;99.90;;;;;;5018546;28;20425;-93
2023/01/17 11:45:26;;;;;;;2.20;0.30;;;8.80;99.90;;;;;;5028237;28;20222;-90
2023/01/17 11:48:07;;;;;;;3.20;0.40;;;8.40;99.90;;;;;;5020483;28;20416;-89
2023/01/17 11:50:36;;;;;;;0.37;0.20;;;9.20;99.90;;;;;;5000844;28;20922;-86
2023/01/17 11:53:26;;;;;;;2.93;0.37;;;9.90;99.90;;;;;;5019005;28;20421;-85
2023/01/17 11:56:11;;;;;;;2.00;0.20;;;10.00;99.90;;;;;;5000315;28;20508;-89
2023/01/17 11:58:40;;;;;;;1.37;0.20;;;10.20;99.90;;;;;;5018186;28;20440;-91
2023/01/17 12:01:25;;;;;;;2.53;0.40;;;10.30;99.90;;;;;;5016296;28;20406;-85
2023/01/17 12:04:21;;;;;;;0.60;0.20;;;9.40;99.90;;;;;;5016272;28;20533;-84
2023/01/17 12:07:05;;;;;;;2.90;0.50;;;9.10;99.90;;;;;;5015915;28;20442;-86
2023/01/17 12:09:43;;;;;;;2.87;0.40;;;9.30;99.90;;;;;;4997221;28;20934;-83
2023/01/17 12:15:21;;;;;;;1.23;0.20;;;10.10;99.90;;;;;;5017146;28;20421;-86
2023/01/17 12:18:16;;;;;;;0.40;0.37;;;10.60;99.90;;;;;;5016716;28;20485;-83
2023/01/17 12:21:09;;;;;;;1.20;0.20;;;10.80;99.90;;;;;;5015819;28;20414;-84
2023/01/17 12:24:03;;;;;;;4.17;0.53;;;9.50;99.90;;;;;;5015478;28;20461;-84
2023/01/17 12:27:08;;;;;;;4.83;0.30;;;10.90;99.90;;;;;;5015573;28;20917;-84
2023/01/17 12:29:53;;;;;;;0.97;0.20;;;9.40;99.90;;;;;;5015491;28;20473;-84
2023/01/17 12:33:04;;;;;;;6.53;0.40;;;9.40;99.90;;;;;;5017367;28;20913;-92
2023/01/17 12:35:44;;;;;;;0.50;0.23;;;7.40;99.90;;;;;;4984205;28;20476;-85
2023/01/17 12:38:14;;;;;;;1.80;0.20;;;6.70;1.00;;;;;;5017331;28;20449;-85
2023/01/17 12:40:55;;;;;;;2.43;0.50;;;6.30;1.00;;;;;;5016881;28;20500;-83
2023/01/17 12:43:24;;;;;;;3.13;0.20;;;6.10;93.60;;;;;;4998968;28;20464;-87
2023/01/17 12:45:53;;;;;;;3.10;0.30;;;5.80;22.50;;;;;;4999295;28;20474;-84
2023/01/17 12:48:20;;;;;;;1.53;0.33;;;5.80;99.90;;;;;;5017450;28;20836;-83
2023/01/17 12:50:59;;;;;;;3.40;0.53;;;5.80;99.90;;;;;;5002449;28;20523;-89
2023/01/17 12:53:48;;;;;;;2.47;0.43;;;5.50;1.00;;;;;;5016009;28;20427;-85
2023/01/17 12:56:26;;;;;;;1.43;0.20;;;5.30;1.00;;;;;;5018893;28;20424;-84
2023/01/17 12:59:21;;;;;;;0.40;0.20;;;5.40;1.00;;;;;;5019766;28;20485;-83
2023/01/17 13:01:57;;;;;;;5.47;0.50;;;5.80;99.90;;;;;;5012825;28;20428;-88
2023/01/17 13:04:51;;;;;;;1.37;0.20;;;5.90;1.00;;;;;;5021248;28;20464;-87
2023/01/17 13:07:35;;;;;;;3.07;0.40;;;5.80;99.90;;;;;;5024170;28;20510;-89
2023/01/17 13:10:13;;;;;;;0.97;0.30;;;6.00;99.90;;;;;;5024371;28;20417;-87
2023/01/17 13:12:39;;;;;;;1.70;0.50;;;5.90;6.60;;;;;;5022476;28;20404;-86
2023/01/17 13:15:23;;;;;;;1.33;0.20;;;6.10;99.90;;;;;;5026138;28;20416;-86
2023/01/17 13:18:14;;;;;;;2.10;0.23;;;6.20;99.90;;;;;;5023497;28;20514;-87
2023/01/17 13:20:52;;;;;;;3.00;0.30;;;6.00;99.90;;;;;;5021449;28;20470;-86
2023/01/17 13:23:29;;;;;;;1.63;0.20;;;6.10;58.20;;;;;;5028539;28;20406;-88
2023/01/17 13:25:57;;;;;;;1.50;0.30;;;6.00;1.00;;;;;;5028136;28;20482;-85
2023/01/17 13:28:43;;;;;;;1.60;0.30;;;6.20;1.00;;;;;;5027892;28;20465;-90
2023/01/17 13:31:38;;;;;;;1.60;0.40;;;6.20;1.00;;;;;;4981864;28;20872;-86
2023/01/17 13:34:34;;;;;;;3.20;0.20;;;6.00;1.00;;;;;;5003659;28;20449;-86
2023/01/17 13:37:33;;;;;;;3.70;0.20;;;5.90;1.00;;;;;;5021856;28;20517;-85
2023/01/17 13:40:27;;;;;;;1.70;0.30;;;6.00;1.00;;;;;;5023960;28;20501;-84
2023/01/17 13:42:56;;;;;;;2.73;0.37;;;5.90;1.00;;;;;;5022055;28;20434;-86
2023/01/17 13:45:34;;;;;;;0.63;0.23;;;6.00;1.00;;;;;;5024241;28;20492;-87
2023/01/17 13:48:24;;;;;;;2.63;0.50;;;6.00;97.60;;;;;;5025970;28;20480;-87
2023/01/17 13:50:57;;;;;;;0.30;0.20;;;5.80;1.00;;;;;;5027271;28;20411;-86
2023/01/17 13:53:35;;;;;;;1.90;0.43;;;5.60;1.00;;;;;;5024722;28;20420;-85
2023/01/17 13:56:18;;;;;;;2.40;0.47;;;5.60;99.90;;;;;;5025348;28;20793;-87
2023/01/17 13:58:50;;;;;;;1.67;0.30;;;5.50;99.90;;;;;;5004402;28;20412;-87
2023/01/17 14:01:22;;;;;;;3.03;0.30;;;5.30;55.60;;;;;;5025498;28;20426;-86
2023/01/17 14:03:50;;;;;;;2.20;0.23;;;5.20;1.00;;;;;;5023899;28;20499;-85
2023/01/17 14:06:36;;;;;;;1.43;0.30;;;5.00;99.90;;;;;;5024331;28;20458;-86
2023/01/17 14:09:20;;;;;;;1.90;0.40;;;5.10;1.00;;;;;;5025311;28;20406;-85
2023/01/17 14:12:25;;;;;;;2.50;0.20;;;5.00;1.00;;;;;;5023051;28;20470;-85
2023/01/17 14:14:54;;;;;;;1.33;0.20;;;5.00;1.00;;;;;;5008940;28;20415;-85
2023/01/17 14:17:24;;;;;;;1.03;0.20;;;5.00;1.00;;;;;;5010587;28;20458;-83
2023/01/17 14:20:08;;;;;;;1.13;0.20;;;4.90;1.00;;;;;;5027336;28;20400;-86
2023/01/17 14:22:52;;;;;;;0.40;0.20;;;4.80;29.50;;;;;;5024806;28;20414;-86
2023/01/17 14:25:21;;;;;;;1.23;0.30;;;4.70;1.00;;;;;;5020248;28;20530;-88
2023/01/17 14:27:50;;;;;;;2.10;0.33;;;4.70;99.90;;;;;;5003828;28;20450;-91
2023/01/17 14:30:16;;;;;;;11.30;0.30;;;4.50;1.00;;;;;;5019490;28;20478;-85
2023/01/17 14:33:00;;;;;;;1.40;0.50;;;4.60;99.90;;;;;;5005510;28;20424;-86
2023/01/17 14:35:28;;;;;;;3.47;0.37;;;4.60;1.00;;;;;;5002901;28;20515;-86
2023/01/17 14:37:56;;;;;;;0.80;0.50;;;4.70;99.90;;;;;;5016368;28;20558;-88
2023/01/17 14:40:29;;;;;;;4.37;0.20;;;4.70;99.90;;;;;;4990197;28;20767;-82
2023/01/17 14:43:14;;;;;;;1.50;0.23;;;4.60;1.00;;;;;;4977684;28;20439;-85
2023/01/17 14:45:42;;;;;;;0.83;0.23;;;4.60;99.90;;;;;;4998526;28;20433;-85
2023/01/17 14:48:22;;;;;;;2.73;0.60;;;4.50;1.00;;;;;;4994819;28;20424;-86
2023/01/17 14:50:50;;;;;;;1.23;0.30;;;4.70;1.00;;;;;;4996649;28;20419;-88
2023/01/17 14:53:19;;;;;;;7.10;0.20;;;4.80;1.00;;;;;;5014155;28;20426;-84
2023/01/17 14:55:49;;;;;;;0.97;0.67;;;4.90;99.90;;;;;;5013728;28;20418;-85
2023/01/17 14:58:30;;;;;;;0.67;0.20;;;4.90;99.90;;;;;;4996236;28;20439;-87
2023/01/17 15:00:57;;;;;;;1.33;0.30;;;5.00;1.00;;;;;;4996945;28;20799;-88
2023/01/17 15:03:23;;;;;;;0.70;0.30;;;4.80;99.90;;;;;;4996361;28;20792;-84
2023/01/17 15:05:50;;;;;;;1.43;0.20;;;4.80;99.90;;;;;;4996602;28;20439;-84
2023/01/17 15:08:19;;;;;;;1.40;0.20;;;4.70;1.00;;;;;;4996089;28;20180;-85